sensor_id;sensor_type;location;lat;lon;timestamp;P1;durP1;ratioP1;P2;durP2;ratioP2
39620;SDS011;25309;48.686;9.170;2023-06-10T00:02:06;6.07;;;5.47;;
39620;SDS011;25309;48.686;9.170;2023-06-10T00:04:35;5.63;;;5.13;;
39620;SDS011;25309;48.686;9.170;2023-06-10T00:07:03;7.07;;;5.83;;
39620;SDS011;25309;48.686;9.170;2023-06-10T00:09:30;6.27;;;5.63;;
39620;SDS011;25309;48.686;9.170;2023-06-10T00:11:57;5.90;;;5.30;;
39620;SDS011;25309;48.686;9.170;2023-06-10T00:14:26;6.00;;;5.47;;
39620;SDS011;25309;48.686;9.170;2023-06-10T00:16:54;6.27;;;5.63;;
39620;SDS011;25309;48.686;9.170;2023-06-10T00:19:21;8.00;;;5.77;;
39620;SDS011;25309;48.686;9.170;2023-06-10T00:21:53;6.00;;;5.40;;
39620;SDS011;25309;48.686;9.170;2023-06-10T00:24:20;6.20;;;5.60;;
39620;SDS011;25309;48.686;9.170;2023-06-10T00:26:47;7.27;;;5.60;;
39620;SDS011;25309;48.686;9.170;2023-06-10T00:29:14;6.50;;;5.60;;
39620;SDS011;25309;48.686;9.170;2023-06-10T00:31:41;7.10;;;5.90;;
39620;SDS011;25309;48.686;9.170;2023-06-10T00:34:08;7.37;;;5.67;;
39620;SDS011;25309;48.686;9.170;2023-06-10T00:36:35;6.50;;;5.80;;
39620;SDS011;25309;48.686;9.170;2023-06-10T00:39:03;6.80;;;5.87;;
39620;SDS011;25309;48.686;9.170;2023-06-10T00:41:31;6.90;;;5.83;;
39620;SDS011;25309;48.686;9.170;2023-06-10T00:44:00;6.27;;;5.63;;
39620;SDS011;25309;48.686;9.170;2023-06-10T00:46:27;6.23;;;5.60;;
39620;SDS011;25309;48.686;9.170;2023-06-10T00:48:54;6.53;;;5.80;;
39620;SDS011;25309;48.686;9.170;2023-06-10T00:51:22;6.10;;;5.50;;
39620;SDS011;25309;48.686;9.170;2023-06-10T00:53:49;6.07;;;5.47;;
39620;SDS011;25309;48.686;9.170;2023-06-10T00:56:18;8.63;;;6.20;;
39620;SDS011;25309;48.686;9.170;2023-06-10T00:58:45;6.20;;;5.60;;
39620;SDS011;25309;48.686;9.170;2023-06-10T01:01:13;6.10;;;5.50;;
39620;SDS011;25309;48.686;9.170;2023-06-10T01:03:40;7.30;;;6.43;;
39620;SDS011;25309;48.686;9.170;2023-06-10T01:06:09;5.97;;;5.40;;
39620;SDS011;25309;48.686;9.170;2023-06-10T01:09:00;6.07;;;5.47;;
39620;SDS011;25309;48.686;9.170;2023-06-10T01:11:36;6.00;;;5.40;;
39620;SDS011;25309;48.686;9.170;2023-06-10T01:14:13;6.37;;;5.77;;
39620;SDS011;25309;48.686;9.170;2023-06-10T01:16:43;6.93;;;5.70;;
39620;SDS011;25309;48.686;9.170;2023-06-10T01:19:12;6.73;;;6.07;;
39620;SDS011;25309;48.686;9.170;2023-06-10T01:21:41;6.17;;;5.57;;
39620;SDS011;25309;48.686;9.170;2023-06-10T01:24:11;7.10;;;6.30;;
39620;SDS011;25309;48.686;9.170;2023-06-10T01:26:40;6.83;;;6.13;;
39620;SDS011;25309;48.686;9.170;2023-06-10T01:29:10;6.87;;;6.23;;
39620;SDS011;25309;48.686;9.170;2023-06-10T01:31:41;6.07;;;5.53;;
39620;SDS011;25309;48.686;9.170;2023-06-10T01:34:13;6.73;;;5.90;;
39620;SDS011;25309;48.686;9.170;2023-06-10T01:36:45;6.47;;;5.87;;
39620;SDS011;25309;48.686;9.170;2023-06-10T01:39:14;6.50;;;5.87;;
39620;SDS011;25309;48.686;9.170;2023-06-10T01:41:42;6.93;;;6.20;;
39620;SDS011;25309;48.686;9.170;2023-06-10T01:44:10;7.37;;;5.57;;
39620;SDS011;25309;48.686;9.170;2023-06-10T01:46:39;7.47;;;6.17;;
39620;SDS011;25309;48.686;9.170;2023-06-10T01:49:06;6.20;;;5.60;;
39620;SDS011;25309;48.686;9.170;2023-06-10T01:51:33;6.67;;;5.73;;
39620;SDS011;25309;48.686;9.170;2023-06-10T01:54:01;6.40;;;5.77;;
39620;SDS011;25309;48.686;9.170;2023-06-10T01:56:28;6.70;;;5.90;;
39620;SDS011;25309;48.686;9.170;2023-06-10T01:58:55;6.90;;;6.20;;
39620;SDS011;25309;48.686;9.170;2023-06-10T02:01:25;6.10;;;5.50;;
39620;SDS011;25309;48.686;9.170;2023-06-10T02:03:53;6.43;;;5.83;;
39620;SDS011;25309;48.686;9.170;2023-06-10T02:06:20;6.47;;;5.80;;
39620;SDS011;25309;48.686;9.170;2023-06-10T02:08:47;7.43;;;6.23;;
39620;SDS011;25309;48.686;9.170;2023-06-10T02:11:15;7.20;;;6.00;;
39620;SDS011;25309;48.686;9.170;2023-06-10T02:13:42;6.90;;;6.20;;
39620;SDS011;25309;48.686;9.170;2023-06-10T02:16:09;6.53;;;5.93;;
39620;SDS011;25309;48.686;9.170;2023-06-10T02:18:39;6.70;;;6.00;;
39620;SDS011;25309;48.686;9.170;2023-06-10T02:21:09;7.00;;;6.37;;
39620;SDS011;25309;48.686;9.170;2023-06-10T02:23:36;6.70;;;6.10;;
39620;SDS011;25309;48.686;9.170;2023-06-10T02:26:04;6.80;;;6.10;;
39620;SDS011;25309;48.686;9.170;2023-06-10T02:28:32;6.97;;;5.70;;
39620;SDS011;25309;48.686;9.170;2023-06-10T02:30:59;6.53;;;5.93;;
39620;SDS011;25309;48.686;9.170;2023-06-10T02:33:27;6.60;;;6.00;;
39620;SDS011;25309;48.686;9.170;2023-06-10T02:38:23;7.20;;;5.90;;
39620;SDS011;25309;48.686;9.170;2023-06-10T02:40:50;7.23;;;6.37;;
39620;SDS011;25309;48.686;9.170;2023-06-10T02:43:17;7.90;;;6.50;;
39620;SDS011;25309;48.686;9.170;2023-06-10T02:45:45;6.90;;;6.20;;
39620;SDS011;25309;48.686;9.170;2023-06-10T02:48:14;6.60;;;6.00;;
39620;SDS011;25309;48.686;9.170;2023-06-10T02:50:41;7.33;;;6.30;;
39620;SDS011;25309;48.686;9.170;2023-06-10T02:53:28;7.23;;;6.53;;
39620;SDS011;25309;48.686;9.170;2023-06-10T02:56:03;6.93;;;6.13;;
39620;SDS011;25309;48.686;9.170;2023-06-10T02:58:30;6.63;;;6.00;;
39620;SDS011;25309;48.686;9.170;2023-06-10T03:00:59;7.57;;;6.77;;
39620;SDS011;25309;48.686;9.170;2023-06-10T03:03:33;7.23;;;6.53;;
39620;SDS011;25309;48.686;9.170;2023-06-10T03:06:06;6.90;;;6.20;;
39620;SDS011;25309;48.686;9.170;2023-06-10T03:08:35;7.57;;;6.37;;
39620;SDS011;25309;48.686;9.170;2023-06-10T03:11:07;6.43;;;5.73;;
39620;SDS011;25309;48.686;9.170;2023-06-10T03:13:35;7.30;;;6.07;;
39620;SDS011;25309;48.686;9.170;2023-06-10T03:16:04;7.03;;;6.33;;
39620;SDS011;25309;48.686;9.170;2023-06-10T03:18:34;7.80;;;6.60;;
39620;SDS011;25309;48.686;9.170;2023-06-10T03:21:01;7.20;;;6.50;;
39620;SDS011;25309;48.686;9.170;2023-06-10T03:23:29;7.23;;;6.13;;
39620;SDS011;25309;48.686;9.170;2023-06-10T03:25:57;6.80;;;6.10;;
39620;SDS011;25309;48.686;9.170;2023-06-10T03:28:24;6.73;;;6.07;;
39620;SDS011;25309;48.686;9.170;2023-06-10T03:30:51;6.93;;;6.23;;
39620;SDS011;25309;48.686;9.170;2023-06-10T03:33:23;7.03;;;6.30;;
39620;SDS011;25309;48.686;9.170;2023-06-10T03:35:50;7.60;;;6.80;;
39620;SDS011;25309;48.686;9.170;2023-06-10T03:38:17;6.80;;;6.07;;
39620;SDS011;25309;48.686;9.170;2023-06-10T03:40:45;7.50;;;6.80;;
39620;SDS011;25309;48.686;9.170;2023-06-10T03:43:12;7.10;;;6.40;;
39620;SDS011;25309;48.686;9.170;2023-06-10T03:45:39;7.20;;;6.50;;
39620;SDS011;25309;48.686;9.170;2023-06-10T03:48:08;8.87;;;6.77;;
39620;SDS011;25309;48.686;9.170;2023-06-10T03:50:46;7.17;;;6.47;;
39620;SDS011;25309;48.686;9.170;2023-06-10T03:53:14;7.00;;;6.30;;
39620;SDS011;25309;48.686;9.170;2023-06-10T03:55:42;6.80;;;6.10;;
39620;SDS011;25309;48.686;9.170;2023-06-10T03:58:09;7.93;;;6.80;;
39620;SDS011;25309;48.686;9.170;2023-06-10T04:00:39;7.13;;;6.43;;
39620;SDS011;25309;48.686;9.170;2023-06-10T04:03:11;6.53;;;5.83;;
39620;SDS011;25309;48.686;9.170;2023-06-10T04:05:46;6.87;;;6.20;;
39620;SDS011;25309;48.686;9.170;2023-06-10T04:08:13;7.40;;;6.53;;
39620;SDS011;25309;48.686;9.170;2023-06-10T04:10:40;7.17;;;6.47;;
39620;SDS011;25309;48.686;9.170;2023-06-10T04:13:07;7.20;;;6.10;;
39620;SDS011;25309;48.686;9.170;2023-06-10T04:15:42;7.47;;;6.63;;
39620;SDS011;25309;48.686;9.170;2023-06-10T04:18:14;7.83;;;6.17;;
39620;SDS011;25309;48.686;9.170;2023-06-10T04:20:42;7.00;;;6.30;;
39620;SDS011;25309;48.686;9.170;2023-06-10T04:23:12;6.70;;;6.07;;
39620;SDS011;25309;48.686;9.170;2023-06-10T04:25:41;7.17;;;6.27;;
39620;SDS011;25309;48.686;9.170;2023-06-10T04:28:08;7.53;;;6.10;;
39620;SDS011;25309;48.686;9.170;2023-06-10T04:30:36;8.17;;;6.43;;
39620;SDS011;25309;48.686;9.170;2023-06-10T04:33:04;8.27;;;6.30;;
39620;SDS011;25309;48.686;9.170;2023-06-10T04:35:33;6.83;;;5.50;;
39620;SDS011;25309;48.686;9.170;2023-06-10T04:38:01;6.40;;;5.80;;
39620;SDS011;25309;48.686;9.170;2023-06-10T04:40:31;6.30;;;5.60;;
39620;SDS011;25309;48.686;9.170;2023-06-10T04:42:58;5.97;;;5.23;;
39620;SDS011;25309;48.686;9.170;2023-06-10T04:45:25;6.00;;;5.40;;
39620;SDS011;25309;48.686;9.170;2023-06-10T04:47:52;6.47;;;5.40;;
39620;SDS011;25309;48.686;9.170;2023-06-10T04:50:22;6.10;;;5.07;;
39620;SDS011;25309;48.686;9.170;2023-06-10T04:52:49;5.67;;;5.07;;
39620;SDS011;25309;48.686;9.170;2023-06-10T04:55:16;6.43;;;5.20;;
39620;SDS011;25309;48.686;9.170;2023-06-10T04:57:44;5.63;;;5.13;;
39620;SDS011;25309;48.686;9.170;2023-06-10T05:00:11;6.30;;;4.80;;
39620;SDS011;25309;48.686;9.170;2023-06-10T05:02:39;6.80;;;4.90;;
39620;SDS011;25309;48.686;9.170;2023-06-10T05:05:07;6.17;;;5.20;;
39620;SDS011;25309;48.686;9.170;2023-06-10T05:07:34;6.97;;;5.27;;
39620;SDS011;25309;48.686;9.170;2023-06-10T05:10:01;5.97;;;5.13;;
39620;SDS011;25309;48.686;9.170;2023-06-10T05:12:29;5.67;;;5.10;;
39620;SDS011;25309;48.686;9.170;2023-06-10T05:14:57;5.13;;;4.60;;
39620;SDS011;25309;48.686;9.170;2023-06-10T05:17:24;6.10;;;4.83;;
39620;SDS011;25309;48.686;9.170;2023-06-10T05:19:51;5.23;;;4.50;;
39620;SDS011;25309;48.686;9.170;2023-06-10T05:22:19;4.83;;;4.33;;
39620;SDS011;25309;48.686;9.170;2023-06-10T05:24:46;6.00;;;4.77;;
39620;SDS011;25309;48.686;9.170;2023-06-10T05:27:13;5.23;;;4.60;;
39620;SDS011;25309;48.686;9.170;2023-06-10T05:29:40;4.97;;;4.47;;
39620;SDS011;25309;48.686;9.170;2023-06-10T05:32:08;5.47;;;4.37;;
39620;SDS011;25309;48.686;9.170;2023-06-10T05:34:36;6.20;;;4.67;;
39620;SDS011;25309;48.686;9.170;2023-06-10T05:37:03;5.33;;;4.70;;
39620;SDS011;25309;48.686;9.170;2023-06-10T05:39:31;5.37;;;4.20;;
39620;SDS011;25309;48.686;9.170;2023-06-10T05:41:58;5.37;;;4.87;;
39620;SDS011;25309;48.686;9.170;2023-06-10T05:44:25;5.23;;;4.63;;
39620;SDS011;25309;48.686;9.170;2023-06-10T05:46:52;5.73;;;4.80;;
39620;SDS011;25309;48.686;9.170;2023-06-10T05:49:21;5.97;;;5.13;;
39620;SDS011;25309;48.686;9.170;2023-06-10T05:51:48;5.40;;;4.90;;
39620;SDS011;25309;48.686;9.170;2023-06-10T05:54:15;5.50;;;5.00;;
39620;SDS011;25309;48.686;9.170;2023-06-10T05:56:41;6.20;;;4.80;;
39620;SDS011;25309;48.686;9.170;2023-06-10T05:59:08;6.60;;;5.57;;
39620;SDS011;25309;48.686;9.170;2023-06-10T06:01:36;8.17;;;5.37;;
39620;SDS011;25309;48.686;9.170;2023-06-10T06:04:03;6.13;;;5.10;;
39620;SDS011;25309;48.686;9.170;2023-06-10T06:06:31;6.37;;;5.27;;
39620;SDS011;25309;48.686;9.170;2023-06-10T06:08:58;6.87;;;4.80;;
39620;SDS011;25309;48.686;9.170;2023-06-10T06:11:25;5.70;;;5.10;;
39620;SDS011;25309;48.686;9.170;2023-06-10T06:13:52;6.63;;;5.00;;
39620;SDS011;25309;48.686;9.170;2023-06-10T06:16:19;6.87;;;5.30;;
39620;SDS011;25309;48.686;9.170;2023-06-10T06:18:46;5.83;;;4.83;;
39620;SDS011;25309;48.686;9.170;2023-06-10T06:21:13;6.40;;;4.93;;
39620;SDS011;25309;48.686;9.170;2023-06-10T06:23:42;5.63;;;5.03;;
39620;SDS011;25309;48.686;9.170;2023-06-10T06:26:09;6.83;;;5.70;;
39620;SDS011;25309;48.686;9.170;2023-06-10T06:28:36;19.97;;;6.60;;
39620;SDS011;25309;48.686;9.170;2023-06-10T06:31:03;7.47;;;5.43;;
39620;SDS011;25309;48.686;9.170;2023-06-10T06:33:30;6.27;;;4.87;;
39620;SDS011;25309;48.686;9.170;2023-06-10T06:35:57;6.03;;;4.73;;
39620;SDS011;25309;48.686;9.170;2023-06-10T06:38:24;5.53;;;5.03;;
39620;SDS011;25309;48.686;9.170;2023-06-10T06:40:53;5.53;;;4.90;;
39620;SDS011;25309;48.686;9.170;2023-06-10T06:43:20;6.23;;;5.00;;
39620;SDS011;25309;48.686;9.170;2023-06-10T06:45:54;8.47;;;5.63;;
39620;SDS011;25309;48.686;9.170;2023-06-10T06:48:21;5.63;;;4.87;;
39620;SDS011;25309;48.686;9.170;2023-06-10T06:50:49;5.40;;;4.90;;
39620;SDS011;25309;48.686;9.170;2023-06-10T06:53:16;5.67;;;4.80;;
39620;SDS011;25309;48.686;9.170;2023-06-10T06:55:43;6.17;;;5.30;;
39620;SDS011;25309;48.686;9.170;2023-06-10T06:58:11;5.97;;;5.37;;
39620;SDS011;25309;48.686;9.170;2023-06-10T07:00:38;5.43;;;4.90;;
39620;SDS011;25309;48.686;9.170;2023-06-10T07:03:05;5.43;;;4.80;;
39620;SDS011;25309;48.686;9.170;2023-06-10T07:05:32;5.43;;;4.87;;
39620;SDS011;25309;48.686;9.170;2023-06-10T07:07:59;5.50;;;4.83;;
39620;SDS011;25309;48.686;9.170;2023-06-10T07:10:26;6.40;;;5.03;;
39620;SDS011;25309;48.686;9.170;2023-06-10T07:12:54;5.70;;;5.10;;
39620;SDS011;25309;48.686;9.170;2023-06-10T07:15:22;5.43;;;4.90;;
39620;SDS011;25309;48.686;9.170;2023-06-10T07:17:49;5.13;;;4.63;;
39620;SDS011;25309;48.686;9.170;2023-06-10T07:20:17;6.63;;;4.90;;
39620;SDS011;25309;48.686;9.170;2023-06-10T07:22:44;6.00;;;5.40;;
39620;SDS011;25309;48.686;9.170;2023-06-10T07:25:11;5.90;;;5.30;;
39620;SDS011;25309;48.686;9.170;2023-06-10T07:27:38;5.50;;;5.00;;
39620;SDS011;25309;48.686;9.170;2023-06-10T07:30:05;6.07;;;5.47;;
39620;SDS011;25309;48.686;9.170;2023-06-10T07:32:36;5.90;;;5.30;;
39620;SDS011;25309;48.686;9.170;2023-06-10T07:35:03;5.70;;;5.10;;
39620;SDS011;25309;48.686;9.170;2023-06-10T07:37:33;5.40;;;4.77;;
39620;SDS011;25309;48.686;9.170;2023-06-10T07:40:00;5.90;;;5.30;;
39620;SDS011;25309;48.686;9.170;2023-06-10T07:42:27;6.07;;;5.47;;
39620;SDS011;25309;48.686;9.170;2023-06-10T07:44:54;7.13;;;5.53;;
39620;SDS011;25309;48.686;9.170;2023-06-10T07:47:21;5.77;;;4.83;;
39620;SDS011;25309;48.686;9.170;2023-06-10T07:49:50;7.43;;;5.23;;
39620;SDS011;25309;48.686;9.170;2023-06-10T07:52:17;6.00;;;4.73;;
39620;SDS011;25309;48.686;9.170;2023-06-10T07:54:44;5.87;;;5.10;;
39620;SDS011;25309;48.686;9.170;2023-06-10T07:57:11;6.23;;;5.43;;
39620;SDS011;25309;48.686;9.170;2023-06-10T07:59:38;7.40;;;5.10;;
39620;SDS011;25309;48.686;9.170;2023-06-10T08:02:05;5.73;;;4.90;;
39620;SDS011;25309;48.686;9.170;2023-06-10T08:04:32;5.30;;;4.80;;
39620;SDS011;25309;48.686;9.170;2023-06-10T08:07:03;6.33;;;4.90;;
39620;SDS011;25309;48.686;9.170;2023-06-10T08:09:30;6.30;;;5.20;;
39620;SDS011;25309;48.686;9.170;2023-06-10T08:11:57;5.77;;;5.17;;
39620;SDS011;25309;48.686;9.170;2023-06-10T08:14:24;5.33;;;4.77;;
39620;SDS011;25309;48.686;9.170;2023-06-10T08:16:51;6.70;;;5.37;;
39620;SDS011;25309;48.686;9.170;2023-06-10T08:19:18;5.43;;;4.80;;
39620;SDS011;25309;48.686;9.170;2023-06-10T08:21:45;5.00;;;4.50;;
39620;SDS011;25309;48.686;9.170;2023-06-10T08:24:13;5.83;;;4.73;;
39620;SDS011;25309;48.686;9.170;2023-06-10T08:26:42;4.90;;;4.40;;
39620;SDS011;25309;48.686;9.170;2023-06-10T08:29:11;5.23;;;4.73;;
39620;SDS011;25309;48.686;9.170;2023-06-10T08:31:40;6.03;;;4.63;;
39620;SDS011;25309;48.686;9.170;2023-06-10T08:34:09;7.17;;;4.90;;
39620;SDS011;25309;48.686;9.170;2023-06-10T08:36:36;5.50;;;5.00;;
39620;SDS011;25309;48.686;9.170;2023-06-10T08:39:03;5.03;;;4.57;;
39620;SDS011;25309;48.686;9.170;2023-06-10T08:41:32;5.20;;;4.70;;
39620;SDS011;25309;48.686;9.170;2023-06-10T08:44:03;5.13;;;4.40;;
39620;SDS011;25309;48.686;9.170;2023-06-10T08:46:37;5.37;;;4.30;;
39620;SDS011;25309;48.686;9.170;2023-06-10T08:49:08;4.70;;;3.90;;
39620;SDS011;25309;48.686;9.170;2023-06-10T08:51:35;4.63;;;4.17;;
39620;SDS011;25309;48.686;9.170;2023-06-10T08:54:04;4.40;;;4.00;;
39620;SDS011;25309;48.686;9.170;2023-06-10T08:56:47;4.67;;;4.27;;
39620;SDS011;25309;48.686;9.170;2023-06-10T08:59:17;6.03;;;4.40;;
39620;SDS011;25309;48.686;9.170;2023-06-10T09:01:46;5.50;;;4.10;;
39620;SDS011;25309;48.686;9.170;2023-06-10T09:04:14;4.67;;;4.17;;
39620;SDS011;25309;48.686;9.170;2023-06-10T09:06:42;4.83;;;4.33;;
39620;SDS011;25309;48.686;9.170;2023-06-10T09:09:11;4.87;;;4.10;;
39620;SDS011;25309;48.686;9.170;2023-06-10T09:11:40;4.80;;;4.30;;
39620;SDS011;25309;48.686;9.170;2023-06-10T09:14:09;4.33;;;3.93;;
39620;SDS011;25309;48.686;9.170;2023-06-10T09:16:38;4.60;;;4.10;;
39620;SDS011;25309;48.686;9.170;2023-06-10T09:19:05;5.07;;;4.57;;
39620;SDS011;25309;48.686;9.170;2023-06-10T09:21:39;4.50;;;3.90;;
39620;SDS011;25309;48.686;9.170;2023-06-10T09:24:06;6.00;;;4.27;;
39620;SDS011;25309;48.686;9.170;2023-06-10T09:26:33;5.00;;;4.43;;
39620;SDS011;25309;48.686;9.170;2023-06-10T09:29:03;6.13;;;4.50;;
39620;SDS011;25309;48.686;9.170;2023-06-10T09:31:32;6.43;;;4.27;;
39620;SDS011;25309;48.686;9.170;2023-06-10T09:34:05;4.93;;;4.40;;
39620;SDS011;25309;48.686;9.170;2023-06-10T09:36:33;4.80;;;4.40;;
39620;SDS011;25309;48.686;9.170;2023-06-10T09:39:02;4.97;;;4.47;;
39620;SDS011;25309;48.686;9.170;2023-06-10T09:41:32;5.80;;;4.77;;
39620;SDS011;25309;48.686;9.170;2023-06-10T09:44:01;4.90;;;4.40;;
39620;SDS011;25309;48.686;9.170;2023-06-10T09:46:30;4.67;;;4.17;;
39620;SDS011;25309;48.686;9.170;2023-06-10T09:48:59;4.80;;;4.37;;
39620;SDS011;25309;48.686;9.170;2023-06-10T09:51:26;4.73;;;4.30;;
39620;SDS011;25309;48.686;9.170;2023-06-10T09:53:53;5.47;;;4.43;;
39620;SDS011;25309;48.686;9.170;2023-06-10T09:56:21;4.60;;;4.20;;
39620;SDS011;25309;48.686;9.170;2023-06-10T09:58:58;5.13;;;4.30;;
39620;SDS011;25309;48.686;9.170;2023-06-10T10:01:25;4.60;;;4.07;;
39620;SDS011;25309;48.686;9.170;2023-06-10T10:03:54;4.47;;;4.00;;
39620;SDS011;25309;48.686;9.170;2023-06-10T10:06:21;5.10;;;4.47;;
39620;SDS011;25309;48.686;9.170;2023-06-10T10:08:49;5.03;;;4.37;;
39620;SDS011;25309;48.686;9.170;2023-06-10T10:11:17;4.17;;;3.80;;
39620;SDS011;25309;48.686;9.170;2023-06-10T10:13:46;4.80;;;4.10;;
39620;SDS011;25309;48.686;9.170;2023-06-10T10:16:16;4.47;;;4.00;;
39620;SDS011;25309;48.686;9.170;2023-06-10T10:18:46;4.27;;;3.67;;
39620;SDS011;25309;48.686;9.170;2023-06-10T10:21:21;4.00;;;3.43;;
39620;SDS011;25309;48.686;9.170;2023-06-10T10:23:52;4.00;;;3.60;;
39620;SDS011;25309;48.686;9.170;2023-06-10T10:26:23;4.17;;;3.77;;
39620;SDS011;25309;48.686;9.170;2023-06-10T10:28:54;4.90;;;4.03;;
39620;SDS011;25309;48.686;9.170;2023-06-10T10:31:29;4.40;;;4.00;;
39620;SDS011;25309;48.686;9.170;2023-06-10T10:33:59;4.67;;;3.67;;
39620;SDS011;25309;48.686;9.170;2023-06-10T10:36:28;3.93;;;3.53;;
39620;SDS011;25309;48.686;9.170;2023-06-10T10:38:56;4.10;;;3.70;;
39620;SDS011;25309;48.686;9.170;2023-06-10T10:41:24;4.47;;;3.63;;
39620;SDS011;25309;48.686;9.170;2023-06-10T10:43:53;6.33;;;4.03;;
39620;SDS011;25309;48.686;9.170;2023-06-10T10:46:21;4.10;;;3.70;;
39620;SDS011;25309;48.686;9.170;2023-06-10T10:48:51;4.83;;;4.33;;
39620;SDS011;25309;48.686;9.170;2023-06-10T10:51:20;4.37;;;3.97;;
39620;SDS011;25309;48.686;9.170;2023-06-10T10:56:40;4.35;;;3.95;;
39620;SDS011;25309;48.686;9.170;2023-06-10T10:59:46;5.10;;;4.03;;
39620;SDS011;25309;48.686;9.170;2023-06-10T11:02:19;4.10;;;3.70;;
39620;SDS011;25309;48.686;9.170;2023-06-10T11:04:59;4.00;;;3.60;;
39620;SDS011;25309;48.686;9.170;2023-06-10T11:07:28;4.10;;;3.70;;
39620;SDS011;25309;48.686;9.170;2023-06-10T11:10:01;4.10;;;3.70;;
39620;SDS011;25309;48.686;9.170;2023-06-10T11:12:40;4.28;;;3.63;;
39620;SDS011;25309;48.686;9.170;2023-06-10T11:15:08;3.95;;;3.55;;
39620;SDS011;25309;48.686;9.170;2023-06-10T11:17:36;4.13;;;3.75;;
39620;SDS011;25309;48.686;9.170;2023-06-10T11:20:03;4.97;;;3.15;;
39620;SDS011;25309;48.686;9.170;2023-06-10T11:22:31;3.47;;;3.17;;
39620;SDS011;25309;48.686;9.170;2023-06-10T11:24:58;3.70;;;3.40;;
39620;SDS011;25309;48.686;9.170;2023-06-10T11:27:27;4.32;;;3.22;;
39620;SDS011;25309;48.686;9.170;2023-06-10T11:30:18;3.25;;;2.95;;
39620;SDS011;25309;48.686;9.170;2023-06-10T11:32:50;3.70;;;3.40;;
39620;SDS011;25309;48.686;9.170;2023-06-10T11:35:19;3.67;;;3.30;;
39620;SDS011;25309;48.686;9.170;2023-06-10T11:37:47;3.65;;;3.35;;
39620;SDS011;25309;48.686;9.170;2023-06-10T11:40:16;7.47;;;3.55;;
39620;SDS011;25309;48.686;9.170;2023-06-10T11:42:43;3.58;;;3.28;;
39620;SDS011;25309;48.686;9.170;2023-06-10T11:45:14;3.72;;;3.30;;
39620;SDS011;25309;48.686;9.170;2023-06-10T11:47:54;3.45;;;3.15;;
39620;SDS011;25309;48.686;9.170;2023-06-10T11:50:27;3.60;;;3.30;;
39620;SDS011;25309;48.686;9.170;2023-06-10T11:52:55;4.72;;;3.67;;
39620;SDS011;25309;48.686;9.170;2023-06-10T11:55:23;3.80;;;3.40;;
39620;SDS011;25309;48.686;9.170;2023-06-10T11:57:51;4.00;;;3.60;;
39620;SDS011;25309;48.686;9.170;2023-06-10T12:00:24;3.60;;;3.30;;
39620;SDS011;25309;48.686;9.170;2023-06-10T12:02:55;3.88;;;3.50;;
39620;SDS011;25309;48.686;9.170;2023-06-10T12:05:24;4.53;;;3.10;;
39620;SDS011;25309;48.686;9.170;2023-06-10T12:10:41;4.38;;;3.20;;
39620;SDS011;25309;48.686;9.170;2023-06-10T12:13:08;3.88;;;3.25;;
39620;SDS011;25309;48.686;9.170;2023-06-10T12:15:36;3.58;;;3.22;;
39620;SDS011;25309;48.686;9.170;2023-06-10T12:18:03;3.80;;;3.40;;
39620;SDS011;25309;48.686;9.170;2023-06-10T12:20:31;3.88;;;3.17;;
39620;SDS011;25309;48.686;9.170;2023-06-10T12:23:08;3.15;;;2.85;;
39620;SDS011;25309;48.686;9.170;2023-06-10T12:25:36;3.67;;;3.38;;
39620;SDS011;25309;48.686;9.170;2023-06-10T12:28:09;4.00;;;3.60;;
39620;SDS011;25309;48.686;9.170;2023-06-10T12:30:36;3.65;;;3.35;;
39620;SDS011;25309;48.686;9.170;2023-06-10T12:33:03;6.57;;;3.72;;
39620;SDS011;25309;48.686;9.170;2023-06-10T12:35:46;3.58;;;3.17;;
39620;SDS011;25309;48.686;9.170;2023-06-10T12:38:14;4.22;;;3.83;;
39620;SDS011;25309;48.686;9.170;2023-06-10T12:40:48;4.55;;;3.85;;
39620;SDS011;25309;48.686;9.170;2023-06-10T12:43:20;4.20;;;3.80;;
39620;SDS011;25309;48.686;9.170;2023-06-10T12:45:49;4.03;;;3.28;;
39620;SDS011;25309;48.686;9.170;2023-06-10T12:48:17;3.83;;;3.53;;
39620;SDS011;25309;48.686;9.170;2023-06-10T12:50:46;3.80;;;3.50;;
39620;SDS011;25309;48.686;9.170;2023-06-10T12:53:17;4.10;;;3.70;;
39620;SDS011;25309;48.686;9.170;2023-06-10T12:55:46;3.90;;;3.50;;
39620;SDS011;25309;48.686;9.170;2023-06-10T12:58:13;4.47;;;3.40;;
39620;SDS011;25309;48.686;9.170;2023-06-10T13:00:42;4.00;;;3.60;;
39620;SDS011;25309;48.686;9.170;2023-06-10T13:03:09;3.40;;;3.10;;
39620;SDS011;25309;48.686;9.170;2023-06-10T13:05:36;2.90;;;2.60;;
39620;SDS011;25309;48.686;9.170;2023-06-10T13:08:05;3.85;;;2.97;;
39620;SDS011;25309;48.686;9.170;2023-06-10T13:10:33;3.40;;;3.10;;
39620;SDS011;25309;48.686;9.170;2023-06-10T13:13:01;3.47;;;3.17;;
39620;SDS011;25309;48.686;9.170;2023-06-10T13:15:31;4.28;;;3.20;;
39620;SDS011;25309;48.686;9.170;2023-06-10T13:18:00;3.45;;;3.15;;
39620;SDS011;25309;48.686;9.170;2023-06-10T13:20:27;3.25;;;2.97;;
39620;SDS011;25309;48.686;9.170;2023-06-10T13:22:54;3.45;;;3.13;;
39620;SDS011;25309;48.686;9.170;2023-06-10T13:25:21;3.20;;;2.90;;
39620;SDS011;25309;48.686;9.170;2023-06-10T13:27:48;4.18;;;3.22;;
39620;SDS011;25309;48.686;9.170;2023-06-10T13:30:15;3.75;;;3.45;;
39620;SDS011;25309;48.686;9.170;2023-06-10T13:32:42;4.10;;;3.70;;
39620;SDS011;25309;48.686;9.170;2023-06-10T13:35:10;4.05;;;3.65;;
39620;SDS011;25309;48.686;9.170;2023-06-10T13:37:38;3.50;;;3.20;;
39620;SDS011;25309;48.686;9.170;2023-06-10T13:40:05;4.30;;;3.20;;
39620;SDS011;25309;48.686;9.170;2023-06-10T13:42:34;4.88;;;3.63;;
39620;SDS011;25309;48.686;9.170;2023-06-10T13:45:02;3.70;;;3.40;;
39620;SDS011;25309;48.686;9.170;2023-06-10T13:47:30;3.70;;;3.40;;
39620;SDS011;25309;48.686;9.170;2023-06-10T13:49:57;3.70;;;3.40;;
39620;SDS011;25309;48.686;9.170;2023-06-10T13:52:25;3.97;;;3.63;;
39620;SDS011;25309;48.686;9.170;2023-06-10T13:54:52;3.90;;;3.50;;
39620;SDS011;25309;48.686;9.170;2023-06-10T13:57:19;4.25;;;3.80;;
39620;SDS011;25309;48.686;9.170;2023-06-10T13:59:46;3.75;;;3.45;;
39620;SDS011;25309;48.686;9.170;2023-06-10T14:02:13;3.90;;;3.50;;
39620;SDS011;25309;48.686;9.170;2023-06-10T14:04:40;4.07;;;3.67;;
39620;SDS011;25309;48.686;9.170;2023-06-10T14:07:07;3.63;;;3.33;;
39620;SDS011;25309;48.686;9.170;2023-06-10T14:09:35;3.65;;;3.28;;
39620;SDS011;25309;48.686;9.170;2023-06-10T14:12:02;5.35;;;3.58;;
39620;SDS011;25309;48.686;9.170;2023-06-10T14:14:31;4.05;;;3.72;;
39620;SDS011;25309;48.686;9.170;2023-06-10T14:16:59;3.50;;;3.20;;
39620;SDS011;25309;48.686;9.170;2023-06-10T14:19:26;3.92;;;3.20;;
39620;SDS011;25309;48.686;9.170;2023-06-10T14:21:53;4.00;;;3.60;;
39620;SDS011;25309;48.686;9.170;2023-06-10T14:24:21;3.80;;;3.50;;
39620;SDS011;25309;48.686;9.170;2023-06-10T14:26:50;4.28;;;3.60;;
39620;SDS011;25309;48.686;9.170;2023-06-10T14:29:17;3.58;;;3.28;;
39620;SDS011;25309;48.686;9.170;2023-06-10T14:31:45;3.80;;;3.40;;
39620;SDS011;25309;48.686;9.170;2023-06-10T14:34:12;3.55;;;3.25;;
39620;SDS011;25309;48.686;9.170;2023-06-10T14:36:39;3.88;;;3.45;;
39620;SDS011;25309;48.686;9.170;2023-06-10T14:39:06;4.50;;;3.60;;
39620;SDS011;25309;48.686;9.170;2023-06-10T14:41:33;4.85;;;3.58;;
39620;SDS011;25309;48.686;9.170;2023-06-10T14:44:01;3.75;;;3.38;;
39620;SDS011;25309;48.686;9.170;2023-06-10T14:46:28;3.58;;;3.28;;
39620;SDS011;25309;48.686;9.170;2023-06-10T14:48:56;3.85;;;3.40;;
39620;SDS011;25309;48.686;9.170;2023-06-10T14:51:23;3.78;;;3.47;;
39620;SDS011;25309;48.686;9.170;2023-06-10T14:53:50;4.53;;;3.60;;
39620;SDS011;25309;48.686;9.170;2023-06-10T14:56:17;3.72;;;3.38;;
39620;SDS011;25309;48.686;9.170;2023-06-10T14:58:44;5.97;;;3.80;;
39620;SDS011;25309;48.686;9.170;2023-06-10T15:01:12;4.22;;;3.92;;
39620;SDS011;25309;48.686;9.170;2023-06-10T15:03:39;4.75;;;4.28;;
39620;SDS011;25309;48.686;9.170;2023-06-10T15:06:06;5.15;;;4.43;;